• Join FlightAware (Why Join?)
  • Login
  • US Flag 
10:08PM EDT


 

Airport Tracker/Info


-or-


 

Live Flight TrackerFlight Track Log ✈ C-FMZW ✈ 14-May-2012 ✈ CYYC - CYOW

Flight Track Log - Related Links

Times and Time Zones

All times are in EDT time to prevent confusion due to time zone crossing. See the C-FMZW flight status page for this flight to view local times or setup timezone preferences in your user account.

Time Position Orientation Groundspeed Altitude Reporting Facility
EDT Latitude Longitude Course Direction KTS MPH feet Rate Location/Type
09:05PM 51.0667 -114.0333 101° East 150 173 3,900  Level Edmonton Center
09:10PM 51.0167 -113.6167 90° East 380 437 14,300 2,280 Climbing Edmonton Center
09:11PM 51.0167 -113.4333 81° East 380 437 17,600 2,640 Climbing Edmonton Center
09:12PM 51.0333 -113.2667 98° East 390 449 19,600 2,040 Climbing Edmonton Center
09:13PM 51.0167 -113.0833 82° East 410 472 21,700 1,560 Climbing Edmonton Center
09:14PM 51.0333 -112.8833 90° East 440 506 22,800 1,440 Climbing Edmonton Center
09:15PM 51.0333 -112.7000 90° East 460 529 24,600 1,800 Climbing Edmonton Center
09:16PM 51.0333 -112.4833 90° East 470 541 26,400 1,620 Climbing Edmonton Center
09:17PM 51.0333 -112.3500 90° East 480 552 27,400 1,440 Climbing Winnipeg Center
09:18PM 51.0333 -112.1333 105° East 490 564 28,900 1,440 Climbing Winnipeg Center
09:19PM 51.0000 -111.9333 90° East 500 575 30,300 1,500 Climbing Winnipeg Center
09:20PM 51.0000 -111.6833 95° East 500 575 31,900 1,440 Climbing Winnipeg Center
09:21PM 50.9833 -111.4000 97° East 490 564 33,600 1,320 Climbing Edmonton Center
09:22PM 50.9667 -111.1833 90° East 480 552 35,000 780 Climbing Edmonton Center
09:23PM 50.9667 -111.0500 97° East 500 575 35,000  Level Winnipeg Center
09:24PM 50.9500 -110.8333 96° East 520 598 35,000  Level Winnipeg Center
09:25PM 50.9333 -110.5833 90° East 520 598 35,000  Level Winnipeg Center
09:26PM 50.9333 -110.3667 103° East 520 598 35,000  Level Winnipeg Center
09:27PM 50.9000 -110.1333 90° East 520 598 35,000  Level Winnipeg Center
09:28PM 50.9000 -109.9000 90° East 520 598 35,000  Level Winnipeg Center
09:29PM 50.9000 -109.7000 90° East 520 598 35,000  Level Winnipeg Center
09:30PM 50.9000 -109.4500 97° East 520 598 35,000  Level Winnipeg Center
09:31PM 50.8833 -109.2333 90° East 520 598 35,000  Level Winnipeg Center
09:32PM 50.8833 -109.0000 96° East 520 598 35,000  Level Winnipeg Center
09:33PM 50.8667 -108.7667 96° East 520 598 35,000  Level Winnipeg Center
09:34PM 50.8500 -108.5333 90° East 520 598 35,000  Level Winnipeg Center
09:35PM 50.8500 -108.3167 96° East 520 598 35,000  Level Winnipeg Center
09:36PM 50.8333 -108.0667 97° East 520 598 35,000  Level Winnipeg Center
09:37PM 50.8167 -107.8500 90° East 530 610 35,000  Level Winnipeg Center
09:38PM 50.8167 -107.6167 97° East 520 598 35,000  Level Winnipeg Center
09:39PM 50.8000 -107.4000 96° East 520 598 35,000  Level Winnipeg Center
09:40PM 50.7833 -107.1500 97° East 520 598 35,000  Level Winnipeg Center
09:41PM 50.7667 -106.9333 97° East 520 598 35,000  Level Winnipeg Center
09:42PM 50.7500 -106.7167 90° East 520 598 35,000  Level Winnipeg Center
09:43PM 50.7500 -106.4833 96° East 520 598 35,000  Level Winnipeg Center
09:44PM 50.7333 -106.2333 90° East 520 598 35,000  Level Winnipeg Center
09:45PM 50.7333 -106.0167 97° East 520 598 35,000  Level Winnipeg Center
09:46PM 50.7167 -105.8000 96° East 520 598 35,000  Level Winnipeg Center
09:47PM 50.7000 -105.5667 97° East 530 610 35,000  Level Winnipeg Center
09:48PM 50.6833 -105.3500 96° East 530 610 35,000  Level Winnipeg Center
09:49PM 50.6667 -105.0833 97° East 530 610 35,000  Level Winnipeg Center
09:50PM 50.6500 -104.8667 97° East 530 610 35,000  Level Winnipeg Center
09:51PM 50.6333 -104.6500 96° East 530 610 35,000  Level Winnipeg Center
09:52PM 50.6167 -104.4167 96° East 530 610 35,000  Level Winnipeg Center
09:53PM 50.6000 -104.1667 104° East 530 610 35,000  Level Winnipeg Center
09:54PM 50.5667 -103.9500 96° East 530 610 35,000  Level Winnipeg Center
09:55PM 50.5500 -103.7167 97° East 530 610 35,000  Level Winnipeg Center
09:56PM 50.5333 -103.5000 96° East 530 610 35,000  Level Winnipeg Center
09:57PM 50.5167 -103.2667 98° East 530 610 35,000  Level Winnipeg Center
10:05PM 50.3333 -101.4167 100° East 530 610 35,000  Level Winnipeg Center
10:10PM 50.2000 -100.2833 102° East 530 610 35,000  Level Winnipeg Center
10:11PM 50.1667 -100.0500 97° East 530 610 35,000  Level Winnipeg Center
10:12PM 50.1500 -99.8333 104° East 530 610 35,000  Level Winnipeg Center
10:13PM 50.1167 -99.6333 102° East 530 610 35,000  Level Winnipeg Center
10:14PM 50.0833 -99.3833 96° East 530 610 35,000  Level Winnipeg Center
10:15PM 50.0667 -99.1500 104° East 520 598 35,000  Level Winnipeg Center
10:16PM 50.0333 -98.9500 102° East 520 598 35,000  Level Winnipeg Center
10:17PM 50.0000 -98.7167 103° East 520 598 35,000  Level Winnipeg Center
10:18PM 49.9667 -98.5000 102° East 530 610 35,000  Level Winnipeg Center
10:19PM 49.9333 -98.2667 103° East 530 610 35,000  Level Winnipeg Center
10:20PM 49.9000 -98.0500 90° East 530 610 35,000  Level Winnipeg Center
10:21PM 49.9000 -97.8167 104° East 530 610 35,000  Level Winnipeg Center
10:22PM 49.8667 -97.6167 102° East 530 610 35,000  Level Winnipeg Center
10:23PM 49.8333 -97.3833 102° East 530 610 35,000  Level Winnipeg Center
10:24PM 49.8000 -97.1500 103° East 530 610 35,000  Level Winnipeg Center
10:25PM 49.7667 -96.9333 104° East 520 598 35,000  Level Winnipeg Center
10:26PM 49.7333 -96.7333 104° East 510 587 35,000  Level Winnipeg Center
10:27PM 49.7000 -96.5333 102° East 520 598 35,000  Level Winnipeg Center
10:28PM 49.6667 -96.3000 110° East 510 587 35,000  Level Winnipeg Center
10:29PM 49.6167 -96.0833 102° East 520 598 35,000  Level Winnipeg Center
10:30PM 49.5833 -95.8500 104° East 510 587 35,000  Level Winnipeg Center
10:31PM 49.5500 -95.6500 102° East 510 587 35,000  Level Winnipeg Center
10:32PM 49.5167 -95.4167 106° East 510 587 35,000  Level Winnipeg Center
10:33PM 49.4833 -95.2333 97° East 510 587 35,000  Level Winnipeg Center
10:34PM 49.4667 -95.0333 108° East 510 587 35,000  Level Winnipeg Center
10:35PM 49.4167 -94.8000 104° East 510 587 35,000  Level Winnipeg Center
10:36PM 49.3833 -94.6000 104° East 500 575 35,000  Level Winnipeg Center
10:37PM 49.3500 -94.4000 104° East 500 575 35,000  Level Winnipeg Center
10:38PM 49.3167 -94.2000 108° East 500 575 35,000  Level Winnipeg Center
10:39PM 49.2667 -93.9667 105° East 500 575 35,000  Level Winnipeg Center
10:40PM 49.2333 -93.7833 109° East 490 564 35,000  Level Winnipeg Center
10:41PM 49.1833 -93.5667 98° East 490 564 35,000  Level Winnipeg Center
10:42PM 49.1667 -93.3833 102° East 490 564 35,000  Level Winnipeg Center
10:43PM 49.1333 -93.1500 111° Southeast 510 587 35,000  Level Winnipeg Center
10:44PM 49.0833 -92.9500 104° East 510 587 35,000  Level Winnipeg Center
10:45PM 49.0500 -92.7500 111° Southeast 500 575 35,000  Level Winnipeg Center
10:46PM 49.0000 -92.5500 104° East 490 564 35,000  Level Winnipeg Center
10:47PM 48.9667 -92.3500 104° East 500 575 35,000  Level Winnipeg Center
10:48PM 48.9333 -92.1500 103° East 500 575 35,000  Level Winnipeg Center
10:49PM 48.9000 -91.9333 111° Southeast 500 575 35,000  Level Winnipeg Center
10:50PM 48.8500 -91.7333 105° East 500 575 35,000  Level Winnipeg Center
10:51PM 48.8167 -91.5500 109° East 490 564 35,000  Level Winnipeg Center
10:52PM 48.7667 -91.3333 111° Southeast 490 564 35,000  Level Winnipeg Center
10:53PM 48.7167 -91.1333 104° East 490 564 35,000  Level Winnipeg Center
10:54PM 48.6833 -90.9333 104° East 490 564 35,000  Level Winnipeg Center
10:55PM 48.6500 -90.7333 114° Southeast 490 564 35,000  Level Winnipeg Center
10:56PM 48.6000 -90.5667 103° East 500 575 35,000  Level Winnipeg Center
10:57PM 48.5667 -90.3500 111° Southeast 500 575 35,000  Level Winnipeg Center
10:58PM 48.5167 -90.1500 104° East 500 575 35,000  Level Winnipeg Center
10:59PM 48.4833 -89.9500 104° East 500 575 35,000  Level Winnipeg Center
11:00PM 48.4500 -89.7500 97° East 500 575 35,000  Level Winnipeg Center
11:01PM 48.4333 -89.5333 97° East 500 575 35,000  Level Winnipeg Center
11:02PM 48.4167 -89.3333 97° East 500 575 35,000  Level Winnipeg Center
11:03PM 48.4000 -89.1333 104° East 500 575 35,000  Level Winnipeg Center
11:04PM 48.3667 -88.9333 96° East 510 587 35,000  Level Winnipeg Center
11:05PM 48.3500 -88.7000 105° East 510 587 35,000  Level Winnipeg Center
11:06PM 48.3167 -88.5167 97° East 510 587 35,000  Level Winnipeg Center
11:07PM 48.3000 -88.3167 102° East 500 575 35,000  Level Winnipeg Center
11:08PM 48.2667 -88.0833 97° East 500 575 35,000  Level Winnipeg Center
11:09PM 48.2500 -87.8833 103° East 500 575 35,000  Level Winnipeg Center
11:10PM 48.2167 -87.6667 97° East 510 587 35,000  Level Winnipeg Center
11:11PM 48.2000 -87.4667 103° East 510 587 35,000  Level Winnipeg Center
11:12PM 48.1667 -87.2500 97° East 510 587 35,000  Level Winnipeg Center
11:13PM 48.1500 -87.0500 103° East 510 587 35,000  Level Winnipeg Center
11:14PM 48.1167 -86.8333 104° East 510 587 35,000  Level Winnipeg Center
11:15PM 48.0833 -86.6333 105° East 500 575 35,000  Level Winnipeg Center
11:16PM 48.0500 -86.4500 104° East 510 587 35,000  Level Winnipeg Center
11:17PM 48.0167 -86.2500 96° East 500 575 35,000  Level Winnipeg Center
11:18PM 48.0000 -86.0333 98° East 510 587 35,000  Level Winnipeg Center
11:19PM 47.9833 -85.8500 97° East 500 575 35,000  Level Toronto Center
11:20PM 47.9667 -85.6500 110° East 500 575 35,000  Level Toronto Center
11:21PM 47.9167 -85.4500 97° East 500 575 35,000  Level Toronto Center
11:22PM 47.9000 -85.2500 110° East 500 575 35,000  Level Toronto Center
11:23PM 47.8500 -85.0500 97° East 500 575 35,000  Level Toronto Center
11:24PM 47.8333 -84.8500 97° East 500 575 35,000  Level Toronto Center
11:25PM 47.8167 -84.6500 110° East 500 575 35,000  Level Toronto Center
11:26PM 47.7667 -84.4500 96° East 500 575 35,000  Level Toronto Center
11:27PM 47.7500 -84.2333 113° Southeast 500 575 35,000  Level Toronto Center
11:28PM 47.7167 -84.1167 104° East 490 564 35,000  Level Montreal Center
11:29PM 47.6833 -83.9167 105° East 490 564 35,000  Level Montreal Center
11:30PM 47.6500 -83.7333 103° East 490 564 35,000  Level Montreal Center
11:31PM 47.6167 -83.5167 104° East 490 564 35,000  Level Montreal Center
11:32PM 47.5833 -83.3167 105° East 490 564 35,000  Level Montreal Center
11:33PM 47.5500 -83.1333 104° East 490 564 35,000  Level Montreal Center
11:34PM 47.5167 -82.9333 98° East 490 564 35,000  Level Montreal Center
11:35PM 47.5000 -82.7500 103° East 490 564 35,000  Level Montreal Center
11:36PM 47.4667 -82.5333 112° Southeast 490 564 35,000  Level Montreal Center
11:37PM 47.4167 -82.3500 104° East 480 552 35,000  Level Montreal Center
11:38PM 47.3833 -82.1500 98° East 490 564 35,000  Level Montreal Center
11:39PM 47.3667 -81.9667 110° East 490 564 35,000  Level Montreal Center
11:40PM 47.3167 -81.7667 104° East 480 552 35,000  Level Montreal Center
11:41PM 47.2833 -81.5667 105° East 480 552 35,000  Level Montreal Center
11:42PM 47.2500 -81.3833 112° Southeast 480 552 35,000  Level Montreal Center
11:43PM 47.2000 -81.2000 120° Southeast 470 541 35,000  Level Montreal Center
11:44PM 47.1333 -81.0333 105° East 470 541 35,000  Level Montreal Center
11:45PM 47.1000 -80.8500 118° Southeast 470 541 35,000  Level Montreal Center
11:46PM 47.0333 -80.6667 106° East 480 552 35,000  Level Montreal Center
11:47PM 47.0000 -80.5000 118° Southeast 480 552 35,000  Level Montreal Center
11:48PM 46.9333 -80.3167 118° Southeast 480 552 35,000  Level Montreal Center
11:49PM 46.8667 -80.1333 104° East 480 552 35,000  Level Montreal Center
11:50PM 46.8333 -79.9333 120° Southeast 480 552 35,000  Level Montreal Center
11:51PM 46.7667 -79.7667 116° Southeast 480 552 35,000  Level Montreal Center
11:52PM 46.7167 -79.6167 110° East 480 552 35,000  Level Montreal Center
11:53PM 46.6667 -79.4167 118° Southeast 470 541 35,000  Level Montreal Center
11:54PM 46.6000 -79.2333 114° Southeast 470 541 35,000  Level Montreal Center
11:55PM 46.5500 -79.0667 112° Southeast 470 541 35,000  Level Montreal Center
11:56PM 46.5000 -78.8833 113° Southeast 470 541 35,000  Level Montreal Center
11:57PM 46.4500 -78.7167 120° Southeast 470 541 35,000  Level Montreal Center
11:58PM 46.3833 -78.5500 111° Southeast 470 541 35,000  Level Montreal Center
11:59PM 46.3333 -78.3667 120° Southeast 470 541 35,000  Level Montreal Center
12:00AM 46.2667 -78.2000 106° East 470 541 35,000  Level Montreal Center
12:01AM 46.2333 -78.0333 118° Southeast 470 541 35,000  Level Montreal Center
12:02AM 46.1667 -77.8500 120° Southeast 470 541 35,000 -420 Level Montreal Center
12:03AM 46.1000 -77.6833 113° Southeast 470 541 34,200 -1,680 Descending Montreal Center
12:04AM 46.0500 -77.5167 120° Southeast 470 541 31,700 -2,460 Descending Montreal Center
12:05AM 45.9833 -77.3500 111° Southeast 470 541 29,300 -2,460 Descending Montreal Center
12:06AM 45.9333 -77.1667 118° Southeast 460 529 26,800 -2,400 Descending Montreal Center
12:07AM 45.8833 -77.0333 118° Southeast 440 506 24,600 -2,340 Descending Montreal Center
12:08AM 45.8167 -76.8500 118° Southeast 430 495 22,200 -2,280 Descending Montreal Center
12:09AM 45.7667 -76.7167 108° East 420 483 20,100 -2,160 Descending Montreal Center
12:10AM 45.7333 -76.5667 108° East 400 460 17,900 -1,980 Descending Montreal Center
12:11AM 45.7000 -76.4167 110° East 390 449 16,200 -1,860 Descending Montreal Center
12:12AM 45.6667 -76.2833 112° Southeast 380 437 14,200 -1,860 Descending Montreal Center
12:13AM 45.6333 -76.1667 99° East 370 426 12,500 -1,680 Descending Montreal Center
12:14AM 45.6167 -76.0167 112° Southeast 340 391 10,900 -1,620 Descending Montreal Center
12:15AM 45.5833 -75.9000 103° East 310 357 9,300 -1,860 Descending Montreal Center
12:16AM 45.5667 -75.8000 115° Southeast 290 334 7,200 -1,560 Descending Montreal Center
12:17AM 45.5333 -75.7000 106° East 260 299 6,200 -900 Descending Montreal Center
12:18AM 45.5167 -75.6167 120° Southeast 230 265 5,400 -900 Descending Montreal Center
12:19AM 45.4833 -75.5333 125° Southeast 220 253 4,400 -900 Descending Montreal Center
12:20AM 45.4500 -75.4667 161° South 210 242 3,700 -720 Descending Montreal Center
12:21AM 45.4167 -75.4500 215° Southwest 190 219 3,000 -660 Descending Montreal Center
12:22AM 45.3833 -75.4833 227° Southwest 170 196 2,400 -600 Descending Montreal Center
12:23AM 45.3500 -75.5333 245° Southwest 170 196 1,900 -600 Descending Montreal Center
12:24AM 45.3333 -75.5833 240° Southwest 160 184 1,300 -540 Descending Montreal Center
12:26AM 45.3000 -75.6667 240° Southwest 120 138 400 -480 Descending Montreal Center